sensor_id;sensor_type;location;lat;lon;timestamp;temperature;humidity
84440;SHT31;74675;51.980;5.730;2024-03-08T00:01:19;6.6;63.6
84440;SHT31;74675;51.980;5.730;2024-03-08T00:03:48;6.5;64.1
84440;SHT31;74675;51.980;5.730;2024-03-08T00:06:18;6.5;63.7
84440;SHT31;74675;51.980;5.730;2024-03-08T00:08:47;6.5;64.0
84440;SHT31;74675;51.980;5.730;2024-03-08T00:11:17;6.5;63.7
84440;SHT31;74675;51.980;5.730;2024-03-08T00:13:47;6.4;63.9
84440;SHT31;74675;51.980;5.730;2024-03-08T00:16:15;6.4;63.9
84440;SHT31;74675;51.980;5.730;2024-03-08T00:18:45;6.4;63.6
84440;SHT31;74675;51.980;5.730;2024-03-08T00:21:15;6.4;63.5
84440;SHT31;74675;51.980;5.730;2024-03-08T00:23:44;6.4;63.6
84440;SHT31;74675;51.980;5.730;2024-03-08T00:26:13;6.4;63.1
84440;SHT31;74675;51.980;5.730;2024-03-08T00:28:42;6.4;63.2
84440;SHT31;74675;51.980;5.730;2024-03-08T00:31:10;6.4;63.1
84440;SHT31;74675;51.980;5.730;2024-03-08T00:33:39;6.4;63.0
84440;SHT31;74675;51.980;5.730;2024-03-08T00:36:08;6.4;63.3
84440;SHT31;74675;51.980;5.730;2024-03-08T00:38:37;6.3;63.1
84440;SHT31;74675;51.980;5.730;2024-03-08T00:41:08;6.3;63.7
84440;SHT31;74675;51.980;5.730;2024-03-08T00:43:36;6.3;63.6
84440;SHT31;74675;51.980;5.730;2024-03-08T00:46:05;6.3;63.0
84440;SHT31;74675;51.980;5.730;2024-03-08T00:48:34;6.3;63.6
84440;SHT31;74675;51.980;5.730;2024-03-08T00:51:04;6.3;63.2
84440;SHT31;74675;51.980;5.730;2024-03-08T00:53:33;6.3;62.7
84440;SHT31;74675;51.980;5.730;2024-03-08T00:56:01;6.2;63.7
84440;SHT31;74675;51.980;5.730;2024-03-08T00:58:30;6.2;64.4
84440;SHT31;74675;51.980;5.730;2024-03-08T01:00:59;6.2;63.6
84440;SHT31;74675;51.980;5.730;2024-03-08T01:03:28;6.1;63.6
84440;SHT31;74675;51.980;5.730;2024-03-08T01:05:58;6.1;63.3
84440;SHT31;74675;51.980;5.730;2024-03-08T01:08:28;6.1;64.1
84440;SHT31;74675;51.980;5.730;2024-03-08T01:10:59;6.1;63.5
84440;SHT31;74675;51.980;5.730;2024-03-08T01:13:27;6.0;63.4
84440;SHT31;74675;51.980;5.730;2024-03-08T01:15:56;6.0;64.2
84440;SHT31;74675;51.980;5.730;2024-03-08T01:18:25;6.0;64.3
84440;SHT31;74675;51.980;5.730;2024-03-08T01:20:53;5.9;64.5
84440;SHT31;74675;51.980;5.730;2024-03-08T01:23:25;6.0;64.3
84440;SHT31;74675;51.980;5.730;2024-03-08T01:25:55;6.1;63.9
84440;SHT31;74675;51.980;5.730;2024-03-08T01:28:26;6.2;63.7
84440;SHT31;74675;51.980;5.730;2024-03-08T01:30:55;6.2;63.2
84440;SHT31;74675;51.980;5.730;2024-03-08T01:33:26;6.2;63.2
84440;SHT31;74675;51.980;5.730;2024-03-08T01:35:55;6.2;62.8
84440;SHT31;74675;51.980;5.730;2024-03-08T01:38:23;6.2;62.4
84440;SHT31;74675;51.980;5.730;2024-03-08T01:40:52;6.1;62.4
84440;SHT31;74675;51.980;5.730;2024-03-08T01:43:23;6.0;62.8
84440;SHT31;74675;51.980;5.730;2024-03-08T01:45:53;6.0;62.8
84440;SHT31;74675;51.980;5.730;2024-03-08T01:48:23;5.9;63.0
84440;SHT31;74675;51.980;5.730;2024-03-08T01:50:54;5.9;63.3
84440;SHT31;74675;51.980;5.730;2024-03-08T01:53:24;5.8;63.5
84440;SHT31;74675;51.980;5.730;2024-03-08T01:55:57;5.7;64.0
84440;SHT31;74675;51.980;5.730;2024-03-08T01:58:27;5.7;63.8
84440;SHT31;74675;51.980;5.730;2024-03-08T02:01:00;5.6;64.0
84440;SHT31;74675;51.980;5.730;2024-03-08T02:03:30;5.6;63.8
84440;SHT31;74675;51.980;5.730;2024-03-08T02:06:00;5.5;64.4
84440;SHT31;74675;51.980;5.730;2024-03-08T02:08:28;5.4;64.9
84440;SHT31;74675;51.980;5.730;2024-03-08T02:10:58;5.3;64.4
84440;SHT31;74675;51.980;5.730;2024-03-08T02:13:28;5.3;65.0
84440;SHT31;74675;51.980;5.730;2024-03-08T02:15:59;5.2;64.5
84440;SHT31;74675;51.980;5.730;2024-03-08T02:18:29;5.2;64.7
84440;SHT31;74675;51.980;5.730;2024-03-08T02:20:59;5.1;65.4
84440;SHT31;74675;51.980;5.730;2024-03-08T02:23:29;5.1;65.4
84440;SHT31;74675;51.980;5.730;2024-03-08T02:26:00;5.0;65.4
84440;SHT31;74675;51.980;5.730;2024-03-08T02:28:31;5.0;65.6
84440;SHT31;74675;51.980;5.730;2024-03-08T02:31:00;5.0;65.2
84440;SHT31;74675;51.980;5.730;2024-03-08T02:33:29;4.9;65.3
84440;SHT31;74675;51.980;5.730;2024-03-08T02:35:59;4.9;65.1
84440;SHT31;74675;51.980;5.730;2024-03-08T02:38:27;4.8;65.5
84440;SHT31;74675;51.980;5.730;2024-03-08T02:40:58;4.8;65.8
84440;SHT31;74675;51.980;5.730;2024-03-08T02:43:27;4.8;64.9
84440;SHT31;74675;51.980;5.730;2024-03-08T02:45:55;4.7;65.3
84440;SHT31;74675;51.980;5.730;2024-03-08T02:48:24;4.7;65.3
84440;SHT31;74675;51.980;5.730;2024-03-08T02:50:54;4.7;65.5
84440;SHT31;74675;51.980;5.730;2024-03-08T02:53:23;4.7;65.6
84440;SHT31;74675;51.980;5.730;2024-03-08T02:55:53;4.7;66.1
84440;SHT31;74675;51.980;5.730;2024-03-08T02:58:23;4.7;65.8
84440;SHT31;74675;51.980;5.730;2024-03-08T03:00:54;4.7;66.1
84440;SHT31;74675;51.980;5.730;2024-03-08T03:03:23;4.6;66.7
84440;SHT31;74675;51.980;5.730;2024-03-08T03:05:53;4.6;65.5
84440;SHT31;74675;51.980;5.730;2024-03-08T03:08:22;4.6;66.2
84440;SHT31;74675;51.980;5.730;2024-03-08T03:10:51;4.6;65.7
84440;SHT31;74675;51.980;5.730;2024-03-08T03:13:23;4.6;65.9
84440;SHT31;74675;51.980;5.730;2024-03-08T03:15:51;4.6;66.2
84440;SHT31;74675;51.980;5.730;2024-03-08T03:18:20;4.6;65.6
84440;SHT31;74675;51.980;5.730;2024-03-08T03:20:50;4.6;66.1
84440;SHT31;74675;51.980;5.730;2024-03-08T03:23:19;4.5;66.2
84440;SHT31;74675;51.980;5.730;2024-03-08T03:25:49;4.5;66.1
84440;SHT31;74675;51.980;5.730;2024-03-08T03:28:20;4.5;65.8
84440;SHT31;74675;51.980;5.730;2024-03-08T03:30:50;4.5;65.9
84440;SHT31;74675;51.980;5.730;2024-03-08T03:33:19;4.5;65.9
84440;SHT31;74675;51.980;5.730;2024-03-08T03:35:48;4.4;65.9
84440;SHT31;74675;51.980;5.730;2024-03-08T03:38:18;4.4;65.3
84440;SHT31;74675;51.980;5.730;2024-03-08T03:40:49;4.4;65.2
84440;SHT31;74675;51.980;5.730;2024-03-08T03:43:19;4.4;65.2
84440;SHT31;74675;51.980;5.730;2024-03-08T03:45:49;4.3;65.5
84440;SHT31;74675;51.980;5.730;2024-03-08T03:48:18;4.3;65.3
84440;SHT31;74675;51.980;5.730;2024-03-08T03:50:48;4.3;65.3
84440;SHT31;74675;51.980;5.730;2024-03-08T03:53:17;4.3;65.1
84440;SHT31;74675;51.980;5.730;2024-03-08T03:55:46;4.3;65.1
84440;SHT31;74675;51.980;5.730;2024-03-08T03:58:15;4.3;65.2
84440;SHT31;74675;51.980;5.730;2024-03-08T04:00:48;4.3;65.1
84440;SHT31;74675;51.980;5.730;2024-03-08T04:03:17;4.3;65.5
84440;SHT31;74675;51.980;5.730;2024-03-08T04:05:46;4.3;65.0
84440;SHT31;74675;51.980;5.730;2024-03-08T04:08:15;4.3;64.9
84440;SHT31;74675;51.980;5.730;2024-03-08T04:10:43;4.3;65.1
84440;SHT31;74675;51.980;5.730;2024-03-08T04:13:12;4.3;65.1
84440;SHT31;74675;51.980;5.730;2024-03-08T04:15:42;4.3;65.2
84440;SHT31;74675;51.980;5.730;2024-03-08T04:18:14;4.3;65.1
84440;SHT31;74675;51.980;5.730;2024-03-08T04:20:44;4.3;65.1
84440;SHT31;74675;51.980;5.730;2024-03-08T04:23:14;4.4;64.8
84440;SHT31;74675;51.980;5.730;2024-03-08T04:25:44;4.3;64.8
84440;SHT31;74675;51.980;5.730;2024-03-08T04:28:13;4.3;64.8
84440;SHT31;74675;51.980;5.730;2024-03-08T04:30:45;4.3;64.8
84440;SHT31;74675;51.980;5.730;2024-03-08T04:33:14;4.3;64.8
84440;SHT31;74675;51.980;5.730;2024-03-08T04:35:45;4.3;64.7
84440;SHT31;74675;51.980;5.730;2024-03-08T04:38:14;4.3;64.8
84440;SHT31;74675;51.980;5.730;2024-03-08T04:40:43;4.3;64.8
84440;SHT31;74675;51.980;5.730;2024-03-08T04:43:14;4.3;64.8
84440;SHT31;74675;51.980;5.730;2024-03-08T04:45:45;4.3;64.7
84440;SHT31;74675;51.980;5.730;2024-03-08T04:48:15;4.3;64.6
84440;SHT31;74675;51.980;5.730;2024-03-08T04:50:43;4.3;64.8
84440;SHT31;74675;51.980;5.730;2024-03-08T04:53:12;4.3;64.6
84440;SHT31;74675;51.980;5.730;2024-03-08T04:55:41;4.3;64.7
84440;SHT31;74675;51.980;5.730;2024-03-08T04:58:10;4.3;64.7
84440;SHT31;74675;51.980;5.730;2024-03-08T05:00:39;4.3;64.5
84440;SHT31;74675;51.980;5.730;2024-03-08T05:03:10;4.3;64.8
84440;SHT31;74675;51.980;5.730;2024-03-08T05:05:38;4.3;64.6
84440;SHT31;74675;51.980;5.730;2024-03-08T05:08:07;4.3;64.6
84440;SHT31;74675;51.980;5.730;2024-03-08T05:10:36;4.3;64.4
84440;SHT31;74675;51.980;5.730;2024-03-08T05:13:05;4.3;64.5
84440;SHT31;74675;51.980;5.730;2024-03-08T05:15:33;4.3;64.4
84440;SHT31;74675;51.980;5.730;2024-03-08T05:18:03;4.3;64.6
84440;SHT31;74675;51.980;5.730;2024-03-08T05:20:31;4.3;64.7
84440;SHT31;74675;51.980;5.730;2024-03-08T05:23:00;4.3;64.7
84440;SHT31;74675;51.980;5.730;2024-03-08T05:25:30;4.3;64.7
84440;SHT31;74675;51.980;5.730;2024-03-08T05:27:58;4.3;64.4
84440;SHT31;74675;51.980;5.730;2024-03-08T05:30:27;4.3;64.4
84440;SHT31;74675;51.980;5.730;2024-03-08T05:32:56;4.3;64.3
84440;SHT31;74675;51.980;5.730;2024-03-08T05:35:24;4.3;64.5
84440;SHT31;74675;51.980;5.730;2024-03-08T05:37:53;4.2;64.7
84440;SHT31;74675;51.980;5.730;2024-03-08T05:40:22;4.2;64.6
84440;SHT31;74675;51.980;5.730;2024-03-08T05:42:50;4.2;64.4
84440;SHT31;74675;51.980;5.730;2024-03-08T05:45:19;4.2;64.4
84440;SHT31;74675;51.980;5.730;2024-03-08T05:47:48;4.2;64.4
84440;SHT31;74675;51.980;5.730;2024-03-08T05:50:18;4.2;64.6
84440;SHT31;74675;51.980;5.730;2024-03-08T05:52:47;4.2;64.4
84440;SHT31;74675;51.980;5.730;2024-03-08T05:55:16;4.2;64.5
84440;SHT31;74675;51.980;5.730;2024-03-08T05:57:46;4.2;64.6
84440;SHT31;74675;51.980;5.730;2024-03-08T06:00:16;4.2;64.2
84440;SHT31;74675;51.980;5.730;2024-03-08T06:02:45;4.2;64.4
84440;SHT31;74675;51.980;5.730;2024-03-08T06:05:14;4.2;64.5
84440;SHT31;74675;51.980;5.730;2024-03-08T06:07:42;4.2;64.4
84440;SHT31;74675;51.980;5.730;2024-03-08T06:10:11;4.3;64.3
84440;SHT31;74675;51.980;5.730;2024-03-08T06:12:41;4.3;64.4
84440;SHT31;74675;51.980;5.730;2024-03-08T06:15:10;4.3;64.3
84440;SHT31;74675;51.980;5.730;2024-03-08T06:17:41;4.3;64.1
84440;SHT31;74675;51.980;5.730;2024-03-08T06:20:10;4.3;64.2
84440;SHT31;74675;51.980;5.730;2024-03-08T06:22:40;4.3;64.4
84440;SHT31;74675;51.980;5.730;2024-03-08T06:25:11;4.3;64.1
84440;SHT31;74675;51.980;5.730;2024-03-08T06:27:41;4.3;63.9
84440;SHT31;74675;51.980;5.730;2024-03-08T06:30:13;4.3;64.1
84440;SHT31;74675;51.980;5.730;2024-03-08T06:32:42;4.3;64.0
84440;SHT31;74675;51.980;5.730;2024-03-08T06:35:11;4.3;64.0
84440;SHT31;74675;51.980;5.730;2024-03-08T06:37:42;4.3;64.1
84440;SHT31;74675;51.980;5.730;2024-03-08T06:40:12;4.3;64.1
84440;SHT31;74675;51.980;5.730;2024-03-08T06:42:42;4.3;64.0
84440;SHT31;74675;51.980;5.730;2024-03-08T06:45:13;4.3;64.0
84440;SHT31;74675;51.980;5.730;2024-03-08T06:47:47;4.3;64.0
84440;SHT31;74675;51.980;5.730;2024-03-08T06:50:16;4.3;64.2
84440;SHT31;74675;51.980;5.730;2024-03-08T06:52:45;4.3;64.2
84440;SHT31;74675;51.980;5.730;2024-03-08T06:55:18;4.3;64.0
84440;SHT31;74675;51.980;5.730;2024-03-08T06:57:47;4.3;64.1
84440;SHT31;74675;51.980;5.730;2024-03-08T07:00:16;4.3;64.2
84440;SHT31;74675;51.980;5.730;2024-03-08T07:02:47;4.3;64.2
84440;SHT31;74675;51.980;5.730;2024-03-08T07:05:17;4.3;64.0
84440;SHT31;74675;51.980;5.730;2024-03-08T07:07:45;4.3;64.5
84440;SHT31;74675;51.980;5.730;2024-03-08T07:10:14;4.3;64.7
84440;SHT31;74675;51.980;5.730;2024-03-08T07:12:43;4.3;64.4
84440;SHT31;74675;51.980;5.730;2024-03-08T07:15:13;4.4;64.0
84440;SHT31;74675;51.980;5.730;2024-03-08T07:17:42;4.4;64.1
84440;SHT31;74675;51.980;5.730;2024-03-08T07:20:14;4.4;64.2
84440;SHT31;74675;51.980;5.730;2024-03-08T07:22:47;4.4;64.0
84440;SHT31;74675;51.980;5.730;2024-03-08T07:25:17;4.4;63.8
84440;SHT31;74675;51.980;5.730;2024-03-08T07:27:51;4.4;63.6
84440;SHT31;74675;51.980;5.730;2024-03-08T07:30:21;4.4;63.9
84440;SHT31;74675;51.980;5.730;2024-03-08T07:33:06;4.5;63.7
84440;SHT31;74675;51.980;5.730;2024-03-08T07:35:38;4.5;64.0
84440;SHT31;74675;51.980;5.730;2024-03-08T07:38:08;4.5;64.0
84440;SHT31;74675;51.980;5.730;2024-03-08T07:40:39;4.6;64.1
84440;SHT31;74675;51.980;5.730;2024-03-08T07:43:11;4.6;63.7
84440;SHT31;74675;51.980;5.730;2024-03-08T07:45:40;4.6;63.3
84440;SHT31;74675;51.980;5.730;2024-03-08T07:48:09;4.7;63.5
84440;SHT31;74675;51.980;5.730;2024-03-08T07:50:40;4.7;63.2
84440;SHT31;74675;51.980;5.730;2024-03-08T07:53:09;4.7;63.0
84440;SHT31;74675;51.980;5.730;2024-03-08T07:55:38;4.8;63.2
84440;SHT31;74675;51.980;5.730;2024-03-08T07:58:09;4.8;62.9
84440;SHT31;74675;51.980;5.730;2024-03-08T08:00:37;4.8;63.1
84440;SHT31;74675;51.980;5.730;2024-03-08T08:03:09;4.9;63.0
84440;SHT31;74675;51.980;5.730;2024-03-08T08:05:39;4.9;63.0
84440;SHT31;74675;51.980;5.730;2024-03-08T08:08:09;5.0;63.3
84440;SHT31;74675;51.980;5.730;2024-03-08T08:10:38;5.0;62.8
84440;SHT31;74675;51.980;5.730;2024-03-08T08:13:08;5.1;62.8
84440;SHT31;74675;51.980;5.730;2024-03-08T08:15:37;5.1;62.4
84440;SHT31;74675;51.980;5.730;2024-03-08T08:18:08;5.2;62.4
84440;SHT31;74675;51.980;5.730;2024-03-08T08:20:37;5.2;62.3
84440;SHT31;74675;51.980;5.730;2024-03-08T08:23:06;5.2;61.7
84440;SHT31;74675;51.980;5.730;2024-03-08T08:25:37;5.3;61.9
84440;SHT31;74675;51.980;5.730;2024-03-08T08:28:06;5.3;62.4
84440;SHT31;74675;51.980;5.730;2024-03-08T08:30:35;5.3;62.1
84440;SHT31;74675;51.980;5.730;2024-03-08T08:33:04;5.4;61.9
84440;SHT31;74675;51.980;5.730;2024-03-08T08:35:35;5.4;61.6
84440;SHT31;74675;51.980;5.730;2024-03-08T08:38:04;5.4;62.1
84440;SHT31;74675;51.980;5.730;2024-03-08T08:40:34;5.5;61.7
84440;SHT31;74675;51.980;5.730;2024-03-08T08:43:03;5.5;61.9
84440;SHT31;74675;51.980;5.730;2024-03-08T08:45:33;5.6;61.7
84440;SHT31;74675;51.980;5.730;2024-03-08T08:48:02;5.6;61.8
84440;SHT31;74675;51.980;5.730;2024-03-08T08:50:31;5.7;61.4
84440;SHT31;74675;51.980;5.730;2024-03-08T08:53:00;5.7;61.6
84440;SHT31;74675;51.980;5.730;2024-03-08T08:55:32;5.8;61.0
84440;SHT31;74675;51.980;5.730;2024-03-08T08:58:02;5.8;61.1
84440;SHT31;74675;51.980;5.730;2024-03-08T09:00:33;5.9;61.0
84440;SHT31;74675;51.980;5.730;2024-03-08T09:03:02;5.9;61.0
84440;SHT31;74675;51.980;5.730;2024-03-08T09:05:33;6.0;61.3
84440;SHT31;74675;51.980;5.730;2024-03-08T09:08:02;6.0;61.2
84440;SHT31;74675;51.980;5.730;2024-03-08T09:10:31;6.1;60.6
84440;SHT31;74675;51.980;5.730;2024-03-08T09:13:00;6.2;60.8
84440;SHT31;74675;51.980;5.730;2024-03-08T09:15:30;6.2;60.7
84440;SHT31;74675;51.980;5.730;2024-03-08T09:17:59;6.3;60.3
84440;SHT31;74675;51.980;5.730;2024-03-08T09:20:28;6.4;60.5
84440;SHT31;74675;51.980;5.730;2024-03-08T09:22:58;6.4;60.3
84440;SHT31;74675;51.980;5.730;2024-03-08T09:25:27;6.5;60.3
84440;SHT31;74675;51.980;5.730;2024-03-08T09:27:55;6.5;60.3
84440;SHT31;74675;51.980;5.730;2024-03-08T09:30:25;6.6;60.4
84440;SHT31;74675;51.980;5.730;2024-03-08T09:32:53;6.7;60.2
84440;SHT31;74675;51.980;5.730;2024-03-08T09:35:22;6.7;60.2
84440;SHT31;74675;51.980;5.730;2024-03-08T09:37:51;6.8;60.6
84440;SHT31;74675;51.980;5.730;2024-03-08T09:40:21;6.8;60.2
84440;SHT31;74675;51.980;5.730;2024-03-08T09:42:52;6.9;60.2
84440;SHT31;74675;51.980;5.730;2024-03-08T09:45:21;6.9;59.4
84440;SHT31;74675;51.980;5.730;2024-03-08T09:47:51;6.9;60.0
84440;SHT31;74675;51.980;5.730;2024-03-08T09:50:22;7.0;59.8
84440;SHT31;74675;51.980;5.730;2024-03-08T09:52:55;7.0;59.7
84440;SHT31;74675;51.980;5.730;2024-03-08T09:55:25;7.0;60.0
84440;SHT31;74675;51.980;5.730;2024-03-08T09:58:00;7.1;60.4
84440;SHT31;74675;51.980;5.730;2024-03-08T10:00:50;7.1;59.9
84440;SHT31;74675;51.980;5.730;2024-03-08T10:03:19;7.2;59.5
84440;SHT31;74675;51.980;5.730;2024-03-08T10:05:50;7.2;59.9
84440;SHT31;74675;51.980;5.730;2024-03-08T10:08:22;7.2;59.7
84440;SHT31;74675;51.980;5.730;2024-03-08T10:10:52;7.3;59.4
84440;SHT31;74675;51.980;5.730;2024-03-08T10:13:21;7.4;59.5
84440;SHT31;74675;51.980;5.730;2024-03-08T10:15:50;7.4;59.1
84440;SHT31;74675;51.980;5.730;2024-03-08T10:18:20;7.5;58.7
84440;SHT31;74675;51.980;5.730;2024-03-08T10:21:02;7.5;58.3
84440;SHT31;74675;51.980;5.730;2024-03-08T10:23:33;7.6;58.3
84440;SHT31;74675;51.980;5.730;2024-03-08T10:26:12;7.6;58.1
84440;SHT31;74675;51.980;5.730;2024-03-08T10:28:45;7.6;58.1
84440;SHT31;74675;51.980;5.730;2024-03-08T10:31:14;7.7;58.6
84440;SHT31;74675;51.980;5.730;2024-03-08T10:33:43;7.7;58.8
84440;SHT31;74675;51.980;5.730;2024-03-08T10:36:14;7.8;58.3
84440;SHT31;74675;51.980;5.730;2024-03-08T10:38:43;7.9;57.9
84440;SHT31;74675;51.980;5.730;2024-03-08T10:41:13;7.9;58.0
84440;SHT31;74675;51.980;5.730;2024-03-08T10:43:52;8.0;58.3
84440;SHT31;74675;51.980;5.730;2024-03-08T10:46:34;8.1;57.2
84440;SHT31;74675;51.980;5.730;2024-03-08T10:49:16;8.2;57.4
84440;SHT31;74675;51.980;5.730;2024-03-08T10:51:46;8.3;56.8
84440;SHT31;74675;51.980;5.730;2024-03-08T10:54:19;8.3;56.8
84440;SHT31;74675;51.980;5.730;2024-03-08T10:56:49;8.4;56.3
84440;SHT31;74675;51.980;5.730;2024-03-08T10:59:19;8.5;56.6
84440;SHT31;74675;51.980;5.730;2024-03-08T11:01:48;8.5;56.4
84440;SHT31;74675;51.980;5.730;2024-03-08T11:04:17;8.6;55.7
84440;SHT31;74675;51.980;5.730;2024-03-08T11:06:50;8.7;56.1
84440;SHT31;74675;51.980;5.730;2024-03-08T11:09:31;8.8;55.9
84440;SHT31;74675;51.980;5.730;2024-03-08T11:12:22;8.9;55.6
84440;SHT31;74675;51.980;5.730;2024-03-08T11:14:58;8.9;55.7
84440;SHT31;74675;51.980;5.730;2024-03-08T11:17:45;9.0;54.7
84440;SHT31;74675;51.980;5.730;2024-03-08T11:20:16;9.1;55.7
84440;SHT31;74675;51.980;5.730;2024-03-08T11:22:51;9.2;54.9
84440;SHT31;74675;51.980;5.730;2024-03-08T11:25:33;9.3;54.5
84440;SHT31;74675;51.980;5.730;2024-03-08T11:28:11;9.3;53.2
84440;SHT31;74675;51.980;5.730;2024-03-08T11:30:43;9.4;53.7
84440;SHT31;74675;51.980;5.730;2024-03-08T11:33:15;9.5;53.6
84440;SHT31;74675;51.980;5.730;2024-03-08T11:35:45;9.6;52.8
84440;SHT31;74675;51.980;5.730;2024-03-08T11:38:15;9.7;52.0
84440;SHT31;74675;51.980;5.730;2024-03-08T11:40:46;9.7;53.1
84440;SHT31;74675;51.980;5.730;2024-03-08T11:43:16;9.8;52.2
84440;SHT31;74675;51.980;5.730;2024-03-08T11:45:44;9.9;51.7
84440;SHT31;74675;51.980;5.730;2024-03-08T11:48:13;10.0;51.3
84440;SHT31;74675;51.980;5.730;2024-03-08T11:50:42;10.0;51.8
84440;SHT31;74675;51.980;5.730;2024-03-08T11:53:12;10.1;51.9
84440;SHT31;74675;51.980;5.730;2024-03-08T11:55:41;10.2;51.6
84440;SHT31;74675;51.980;5.730;2024-03-08T11:58:12;10.2;50.6
84440;SHT31;74675;51.980;5.730;2024-03-08T12:00:44;10.3;50.8
84440;SHT31;74675;51.980;5.730;2024-03-08T12:03:12;10.4;49.7
84440;SHT31;74675;51.980;5.730;2024-03-08T12:05:42;10.4;50.3
84440;SHT31;74675;51.980;5.730;2024-03-08T12:08:12;10.5;49.4
84440;SHT31;74675;51.980;5.730;2024-03-08T12:10:41;10.6;49.5
84440;SHT31;74675;51.980;5.730;2024-03-08T12:13:11;10.6;49.1
84440;SHT31;74675;51.980;5.730;2024-03-08T12:15:41;10.7;49.2
84440;SHT31;74675;51.980;5.730;2024-03-08T12:18:10;10.8;48.9
84440;SHT31;74675;51.980;5.730;2024-03-08T12:20:39;10.8;48.3
84440;SHT31;74675;51.980;5.730;2024-03-08T12:23:15;10.9;48.5
84440;SHT31;74675;51.980;5.730;2024-03-08T12:25:45;11.0;48.5
84440;SHT31;74675;51.980;5.730;2024-03-08T12:28:14;11.0;49.0
84440;SHT31;74675;51.980;5.730;2024-03-08T12:30:49;11.1;48.3
84440;SHT31;74675;51.980;5.730;2024-03-08T12:33:20;11.1;48.5
84440;SHT31;74675;51.980;5.730;2024-03-08T12:35:53;11.2;48.0
84440;SHT31;74675;51.980;5.730;2024-03-08T12:38:27;11.3;47.7
84440;SHT31;74675;51.980;5.730;2024-03-08T12:40:58;11.3;46.8
84440;SHT31;74675;51.980;5.730;2024-03-08T12:43:27;11.4;47.4
84440;SHT31;74675;51.980;5.730;2024-03-08T12:45:58;11.4;47.3
84440;SHT31;74675;51.980;5.730;2024-03-08T12:48:27;11.5;47.7
84440;SHT31;74675;51.980;5.730;2024-03-08T12:50:56;11.5;47.1
84440;SHT31;74675;51.980;5.730;2024-03-08T12:53:24;11.6;46.8
84440;SHT31;74675;51.980;5.730;2024-03-08T12:55:55;11.6;46.9
84440;SHT31;74675;51.980;5.730;2024-03-08T12:58:24;11.6;46.5
84440;SHT31;74675;51.980;5.730;2024-03-08T13:00:54;11.7;46.4
84440;SHT31;74675;51.980;5.730;2024-03-08T13:03:22;11.7;46.7
84440;SHT31;74675;51.980;5.730;2024-03-08T13:05:51;11.8;46.9
84440;SHT31;74675;51.980;5.730;2024-03-08T13:08:20;11.8;46.3
84440;SHT31;74675;51.980;5.730;2024-03-08T13:10:51;11.8;46.3
84440;SHT31;74675;51.980;5.730;2024-03-08T13:13:20;11.9;46.3
84440;SHT31;74675;51.980;5.730;2024-03-08T13:15:49;11.9;47.0
84440;SHT31;74675;51.980;5.730;2024-03-08T13:18:17;12.0;46.7
84440;SHT31;74675;51.980;5.730;2024-03-08T13:20:47;12.0;45.8
84440;SHT31;74675;51.980;5.730;2024-03-08T13:23:18;12.1;46.3
84440;SHT31;74675;51.980;5.730;2024-03-08T13:25:47;12.1;46.5
84440;SHT31;74675;51.980;5.730;2024-03-08T13:28:16;12.3;46.1
84440;SHT31;74675;51.980;5.730;2024-03-08T13:30:49;12.6;45.5
84440;SHT31;74675;51.980;5.730;2024-03-08T13:33:18;12.9;44.6
84440;SHT31;74675;51.980;5.730;2024-03-08T13:35:47;13.3;43.7
84440;SHT31;74675;51.980;5.730;2024-03-08T13:38:16;13.7;43.5
84440;SHT31;74675;51.980;5.730;2024-03-08T13:40:46;14.0;42.5
84440;SHT31;74675;51.980;5.730;2024-03-08T13:43:15;14.3;42.4
84440;SHT31;74675;51.980;5.730;2024-03-08T13:45:44;14.5;42.5
84440;SHT31;74675;51.980;5.730;2024-03-08T13:48:16;14.8;41.1
84440;SHT31;74675;51.980;5.730;2024-03-08T13:50:45;14.9;41.2
84440;SHT31;74675;51.980;5.730;2024-03-08T13:53:13;15.1;40.2
84440;SHT31;74675;51.980;5.730;2024-03-08T13:55:42;15.2;40.3
84440;SHT31;74675;51.980;5.730;2024-03-08T13:58:11;15.3;40.0
84440;SHT31;74675;51.980;5.730;2024-03-08T14:00:40;15.3;39.6
84440;SHT31;74675;51.980;5.730;2024-03-08T14:03:14;15.4;39.4
84440;SHT31;74675;51.980;5.730;2024-03-08T14:05:44;15.4;38.8
84440;SHT31;74675;51.980;5.730;2024-03-08T14:08:13;15.4;39.4
84440;SHT31;74675;51.980;5.730;2024-03-08T14:10:43;15.4;39.4
84440;SHT31;74675;51.980;5.730;2024-03-08T14:13:15;15.5;39.8
84440;SHT31;74675;51.980;5.730;2024-03-08T14:15:45;15.5;39.5
84440;SHT31;74675;51.980;5.730;2024-03-08T14:18:14;15.5;39.5
84440;SHT31;74675;51.980;5.730;2024-03-08T14:20:43;15.6;39.1
84440;SHT31;74675;51.980;5.730;2024-03-08T14:23:13;15.6;38.5
84440;SHT31;74675;51.980;5.730;2024-03-08T14:25:41;15.6;38.7
84440;SHT31;74675;51.980;5.730;2024-03-08T14:28:10;15.5;38.8
84440;SHT31;74675;51.980;5.730;2024-03-08T14:30:39;15.5;38.4
84440;SHT31;74675;51.980;5.730;2024-03-08T14:33:09;15.4;38.9
84440;SHT31;74675;51.980;5.730;2024-03-08T14:35:39;15.3;39.4
84440;SHT31;74675;51.980;5.730;2024-03-08T14:38:09;15.3;40.2
84440;SHT31;74675;51.980;5.730;2024-03-08T14:40:39;15.4;39.7
84440;SHT31;74675;51.980;5.730;2024-03-08T14:43:11;15.4;39.4
84440;SHT31;74675;51.980;5.730;2024-03-08T14:45:41;15.5;39.2
84440;SHT31;74675;51.980;5.730;2024-03-08T14:48:09;15.5;39.5
84440;SHT31;74675;51.980;5.730;2024-03-08T14:50:40;15.5;38.5
84440;SHT31;74675;51.980;5.730;2024-03-08T14:53:10;15.5;39.0
84440;SHT31;74675;51.980;5.730;2024-03-08T14:55:42;15.5;39.1
84440;SHT31;74675;51.980;5.730;2024-03-08T14:58:13;15.5;38.3
84440;SHT31;74675;51.980;5.730;2024-03-08T15:00:42;15.5;38.7
84440;SHT31;74675;51.980;5.730;2024-03-08T15:03:11;15.5;38.6
84440;SHT31;74675;51.980;5.730;2024-03-08T15:05:43;15.4;38.6
84440;SHT31;74675;51.980;5.730;2024-03-08T15:08:15;15.4;38.7
84440;SHT31;74675;51.980;5.730;2024-03-08T15:10:50;15.3;38.5
84440;SHT31;74675;51.980;5.730;2024-03-08T15:13:20;15.1;39.3
84440;SHT31;74675;51.980;5.730;2024-03-08T15:15:54;15.0;39.5
84440;SHT31;74675;51.980;5.730;2024-03-08T15:18:25;14.8;39.9
84440;SHT31;74675;51.980;5.730;2024-03-08T15:20:57;14.6;39.6
84440;SHT31;74675;51.980;5.730;2024-03-08T15:23:26;14.5;40.5
84440;SHT31;74675;51.980;5.730;2024-03-08T15:25:55;14.3;40.9
84440;SHT31;74675;51.980;5.730;2024-03-08T15:28:24;14.1;41.2
84440;SHT31;74675;51.980;5.730;2024-03-08T15:30:57;14.0;41.7
84440;SHT31;74675;51.980;5.730;2024-03-08T15:33:31;13.9;41.2
84440;SHT31;74675;51.980;5.730;2024-03-08T15:36:00;13.8;41.6
84440;SHT31;74675;51.980;5.730;2024-03-08T15:38:34;13.8;41.7
84440;SHT31;74675;51.980;5.730;2024-03-08T15:41:03;13.7;42.6
84440;SHT31;74675;51.980;5.730;2024-03-08T15:43:36;13.6;42.2
84440;SHT31;74675;51.980;5.730;2024-03-08T15:46:08;13.5;42.4
84440;SHT31;74675;51.980;5.730;2024-03-08T15:48:40;13.4;42.7
84440;SHT31;74675;51.980;5.730;2024-03-08T15:51:09;13.4;42.7
84440;SHT31;74675;51.980;5.730;2024-03-08T15:53:38;13.3;42.9
84440;SHT31;74675;51.980;5.730;2024-03-08T15:56:07;13.3;42.9
84440;SHT31;74675;51.980;5.730;2024-03-08T15:58:37;13.2;43.2
84440;SHT31;74675;51.980;5.730;2024-03-08T16:01:05;13.2;42.7
84440;SHT31;74675;51.980;5.730;2024-03-08T16:03:34;13.2;42.8
84440;SHT31;74675;51.980;5.730;2024-03-08T16:06:05;13.1;42.7
84440;SHT31;74675;51.980;5.730;2024-03-08T16:08:34;13.1;43.5
84440;SHT31;74675;51.980;5.730;2024-03-08T16:11:06;13.1;43.7
84440;SHT31;74675;51.980;5.730;2024-03-08T16:13:36;13.1;43.1
84440;SHT31;74675;51.980;5.730;2024-03-08T16:16:06;13.0;43.1
84440;SHT31;74675;51.980;5.730;2024-03-08T16:18:35;13.0;42.7
84440;SHT31;74675;51.980;5.730;2024-03-08T16:21:04;13.0;43.3
84440;SHT31;74675;51.980;5.730;2024-03-08T16:23:35;13.0;43.3
84440;SHT31;74675;51.980;5.730;2024-03-08T16:26:05;12.9;43.4
84440;SHT31;74675;51.980;5.730;2024-03-08T16:28:35;13.0;43.3
84440;SHT31;74675;51.980;5.730;2024-03-08T16:31:08;13.0;43.3